Pagrindinis puslapis
METAR-TAF:

METAR-TAF

Oro uostai :

Marshfield, Masačusetsas, Jungtinės Amerikos Valstijos

platuma: 42-05-54N, ilguma: 070-40-20W, Aukštis: 3 m

Dabartinis oras

Ataskaita buvo paskelbta 18 minutes, ne 06:15 UTC
Vėjas 9 kt iš Vakarų su gūsio iki 15 kt
Temperatūra 0°C
Drėgmė 40%
Slėgis 1005 hPa
Matomumas: 16.1 km
Mažai debesys ne aukštis 3800 ft
Išsisklaidę debesys ne aukštis 4800 ft
Su prošvaistėmis ne aukštis 6500 ft

METAR: KGHG 280615Z AUTO 26009G15KT 10SM FEW038 SCT048 BKN065 00/M12 A2969 RMK AO2

Laikas: 01:33 (06:33 UTC)


TAF: trūkstamas

Orai ataskaitas ir orų prognozės (METAR, TAF).

turimą stotys yra geltonos ir raudonos taškus žemėlapyje.

Perkelti pele per norėdami pamatyti stoties vardą.

Tada spustelėkite, norėdami matyti oro stebėjimo ir prognozės.

Norėdami pakeisti žemėlapį: spustelėkite ant žalios mygtukų su juodo kryžiaus žemyn,; žalią mygtuką su brūkšneliu, jei norite nutolinti; arba žalių rodyklių gretimoms žemėlapius.


METAR-TAF: